F/V Sextant — FVNU — position and weather

sailwx.info

Track history (hours):
 
Tides and Currents Weather Stations Pressure Air Temp Water Temp Dewpoint Dewpoint Depression Visibility Wind Speed Wind Dir Waves Ship Positions

F/V Sextant

Last reported at 2017-Nov-23 18:23 UTC. Time now 2017-Nov-23 18:39 UTC.
Position N 49°30' W 000°39'.

Length 15 m; draft 3 m.

Type: Fishing. MMSI: 228919000.

Date/timePositionNaut miles runAvg speedWind from/ knotsBaromVisibWave heightAir tempDewpointWater temp
2017-Nov-23 18:23N 49°30' W 000°39'3 7.2
2017-Nov-23 18:00N 49°30' W 000°35'4 7.1
2017-Nov-23 17:30N 49°29' W 000°30'3 6.5
2017-Nov-23 17:01N 49°29' W 000°25'1 1.5
2017-Nov-23 16:30N 49°28' W 000°24'1 2.9
2017-Nov-23 16:00N 49°27' W 000°22'1 2.4
2017-Nov-23 15:31N 49°27' W 000°21'1 1.3
2017-Nov-23 15:01N 49°26' W 000°20'0 0.6
2017-Nov-23 14:30N 49°26' W 000°20'0 0.9
2017-Nov-23 14:00N 49°26' W 000°20'1 2.2
2017-Nov-23 13:30N 49°26' W 000°21'4 8.3
2017-Nov-23 13:01N 49°27' W 000°28'4 8.8
2017-Nov-23 12:30N 49°28' W 000°34'5 9.0
2017-Nov-23 12:00N 49°29' W 000°41'  
2017-Nov-18 18:41N 49°35' W 001°12'310.4
2017-Nov-18 18:23N 49°39' W 001°13'410.8
2017-Nov-18 18:00N 49°42' W 001°15'612.4
2017-Nov-18 17:30N 49°45' W 001°23'611.5
2017-Nov-18 17:01N 49°45' W 001°32'5 9.6
2017-Nov-18 16:30N 49°45' W 001°39'4 8.4
2017-Nov-18 16:00N 49°45' W 001°46'4 7.1
2017-Nov-18 15:31N 49°45' W 001°52'7 2.3
2017-Nov-18 12:31N 49°42' W 002°01'0 0.5
2017-Nov-18 12:30N 49°42' W 002°01'0 1.0
2017-Nov-18 12:01N 49°42' W 002°02'2 3.2
2017-Nov-18 11:28N 49°40' W 002°04'4 6.0
2017-Nov-18 10:52N 49°37' W 002°06'3 7.7
2017-Nov-18 10:28N 49°34' W 002°08'14 9.3
2017-Nov-18 08:57N 49°22' W 002°20'7710.2
2017-Nov-18 01:23N 48°50' W 004°06'4 9.3
2017-Nov-18 01:00N 48°48' W 004°11'5 9.0
2017-Nov-18 00:29N 48°46' W 004°18'4 8.6
2017-Nov-17 23:59N 48°45' W 004°24'4 8.1
2017-Nov-17 23:30N 48°43' W 004°29'4 7.8
2017-Nov-17 23:00N 48°42' W 004°34'4 7.9
2017-Nov-17 22:31N 48°40' W 004°40'3 6.4
2017-Nov-17 22:00N 48°38' W 004°44'3 6.5
2017-Nov-17 21:30N 48°36' W 004°48'4 7.6
2017-Nov-17 21:00N 48°32' W 004°49'4 8.1
2017-Nov-17 20:30N 48°28' W 004°49'4 8.2
2017-Nov-17 20:00N 48°24' W 004°48'3 6.7
2017-Nov-17 19:31N 48°21' W 004°48'3 5.3
2017-Nov-17 19:00N 48°18' W 004°47'4 7.5
2017-Nov-17 18:30N 48°15' W 004°47'4 8.0
2017-Nov-17 18:00N 48°11' W 004°47'4 7.9
2017-Nov-17 17:30N 48°07' W 004°46'4 7.2
2017-Nov-17 17:00N 48°03' W 004°47'2 3.9
2017-Nov-17 16:30N 48°01' W 004°45'3 5.7
2017-Nov-17 16:00N 47°59' W 004°42'4 7.7
2017-Nov-17 15:31N 47°57' W 004°38'4 8.3
2017-Nov-17 15:00N 47°54' W 004°34'5 8.6
2017-Nov-17 14:28N 47°50' W 004°29'4 8.7
2017-Nov-17 14:00N 47°48' W 004°25'4 8.5
2017-Nov-17 13:30N 47°45' W 004°20'5 8.3
2017-Nov-17 12:56N 47°45' W 004°12'4 8.0
2017-Nov-17 12:24N 47°49' W 004°08'2 5.0
2017-Nov-17 11:59N 47°50' W 004°10'0 0.0
2017-Nov-17 10:58N 47°50' W 004°10'0 0.0
2017-Nov-16 09:27N 47°50' W 004°10'0 0.0
2017-Nov-16 08:55N 47°50' W 004°10'0 0.0
2017-Nov-15 09:15N 47°50' W 004°10'0 0.0
2017-Nov-15 08:43N 47°50' W 004°10'0 0.0
2017-Nov-14 10:33N 47°50' W 004°10'  
Track history (hours):
 
Tides and Currents Weather Stations Pressure Air Temp Water Temp Dewpoint Dewpoint Depression Visibility Wind Speed Wind Dir Waves Ship Positions

F/V Sextant

Last reported at 2017-Nov-23 18:23 UTC. Time now 2017-Nov-23 18:39 UTC.
Position N 49°30' W 000°39'.

Length 15 m; draft 3 m.

Type: Fishing. MMSI: 228919000.

Date/timePositionNaut miles runAvg speedWind from/ knotsBaromVisibWave heightAir tempDewpointWater temp
2017-Nov-23 18:23N 49°30' W 000°39'3 7.2
2017-Nov-23 18:00N 49°30' W 000°35'4 7.1
2017-Nov-23 17:30N 49°29' W 000°30'3 6.5
2017-Nov-23 17:01N 49°29' W 000°25'1 1.5
2017-Nov-23 16:30N 49°28' W 000°24'1 2.9
2017-Nov-23 16:00N 49°27' W 000°22'1 2.4
2017-Nov-23 15:31N 49°27' W 000°21'1 1.3
2017-Nov-23 15:01N 49°26' W 000°20'0 0.6
2017-Nov-23 14:30N 49°26' W 000°20'0 0.9
2017-Nov-23 14:00N 49°26' W 000°20'1 2.2
2017-Nov-23 13:30N 49°26' W 000°21'4 8.3
2017-Nov-23 13:01N 49°27' W 000°28'4 8.8
2017-Nov-23 12:30N 49°28' W 000°34'5 9.0
2017-Nov-23 12:00N 49°29' W 000°41'  
2017-Nov-18 18:41N 49°35' W 001°12'310.4
2017-Nov-18 18:23N 49°39' W 001°13'410.8
2017-Nov-18 18:00N 49°42' W 001°15'612.4
2017-Nov-18 17:30N 49°45' W 001°23'611.5
2017-Nov-18 17:01N 49°45' W 001°32'5 9.6
2017-Nov-18 16:30N 49°45' W 001°39'4 8.4
2017-Nov-18 16:00N 49°45' W 001°46'4 7.1
2017-Nov-18 15:31N 49°45' W 001°52'7 2.3
2017-Nov-18 12:31N 49°42' W 002°01'0 0.5
2017-Nov-18 12:30N 49°42' W 002°01'0 1.0
2017-Nov-18 12:01N 49°42' W 002°02'2 3.2
2017-Nov-18 11:28N 49°40' W 002°04'4 6.0
2017-Nov-18 10:52N 49°37' W 002°06'3 7.7
2017-Nov-18 10:28N 49°34' W 002°08'14 9.3
2017-Nov-18 08:57N 49°22' W 002°20'7710.2
2017-Nov-18 01:23N 48°50' W 004°06'4 9.3
2017-Nov-18 01:00N 48°48' W 004°11'5 9.0
2017-Nov-18 00:29N 48°46' W 004°18'4 8.6
2017-Nov-17 23:59N 48°45' W 004°24'4 8.1
2017-Nov-17 23:30N 48°43' W 004°29'4 7.8
2017-Nov-17 23:00N 48°42' W 004°34'4 7.9
2017-Nov-17 22:31N 48°40' W 004°40'3 6.4
2017-Nov-17 22:00N 48°38' W 004°44'3 6.5
2017-Nov-17 21:30N 48°36' W 004°48'4 7.6
2017-Nov-17 21:00N 48°32' W 004°49'4 8.1
2017-Nov-17 20:30N 48°28' W 004°49'4 8.2
2017-Nov-17 20:00N 48°24' W 004°48'3 6.7
2017-Nov-17 19:31N 48°21' W 004°48'3 5.3
2017-Nov-17 19:00N 48°18' W 004°47'4 7.5
2017-Nov-17 18:30N 48°15' W 004°47'4 8.0
2017-Nov-17 18:00N 48°11' W 004°47'4 7.9
2017-Nov-17 17:30N 48°07' W 004°46'4 7.2
2017-Nov-17 17:00N 48°03' W 004°47'2 3.9
2017-Nov-17 16:30N 48°01' W 004°45'3 5.7
2017-Nov-17 16:00N 47°59' W 004°42'4 7.7
2017-Nov-17 15:31N 47°57' W 004°38'4 8.3
2017-Nov-17 15:00N 47°54' W 004°34'5 8.6
2017-Nov-17 14:28N 47°50' W 004°29'4 8.7
2017-Nov-17 14:00N 47°48' W 004°25'4 8.5
2017-Nov-17 13:30N 47°45' W 004°20'5 8.3
2017-Nov-17 12:56N 47°45' W 004°12'4 8.0
2017-Nov-17 12:24N 47°49' W 004°08'2 5.0
2017-Nov-17 11:59N 47°50' W 004°10'0 0.0
2017-Nov-17 10:58N 47°50' W 004°10'0 0.0
2017-Nov-16 09:27N 47°50' W 004°10'0 0.0
2017-Nov-16 08:55N 47°50' W 004°10'0 0.0
2017-Nov-15 09:15N 47°50' W 004°10'0 0.0
2017-Nov-15 08:43N 47°50' W 004°10'0 0.0
2017-Nov-14 10:33N 47°50' W 004°10'  

Dump ship's entire track history